Time;durP1;ratioP1;P1;durP2;ratioP2;P2;SDS_P1;SDS_P2;PMS_P1;PMS_P2;Temp;Humidity;BMP_temperature;BMP_pressure;BME280_temperature;BME280_humidity;BME280_pressure;Samples;Min_cycle;Max_cycle;Signal;HPM_P1;HPM_P2
2022/08/16 00:02:21;;;;;;;5.17;2.60;;;;;;;;;;5082353;28;20424;-74
2022/08/16 00:04:49;;;;;;;2.90;2.70;;;;;;;;;;5081763;28;20424;-74
2022/08/16 00:07:16;;;;;;;3.13;2.60;;;;;;;;;;5078239;28;20427;-74
2022/08/16 00:09:44;;;;;;;3.10;2.90;;;;;;;;;;5074823;28;20471;-73
2022/08/16 00:12:11;;;;;;;2.63;2.43;;;;;;;;;;5074012;28;21246;-74
2022/08/16 00:14:44;;;;;;;2.67;2.47;;;;;;;;;;5051280;28;20517;-74
2022/08/16 00:17:11;;;;;;;2.20;2.00;;;;;;;;;;5069728;28;20444;-75
2022/08/16 00:19:44;;;;;;;2.43;2.30;;;;;;;;;;5057836;28;20941;-75
2022/08/16 00:22:11;;;;;;;2.30;2.20;;;;;;;;;;5081224;28;20438;-74
2022/08/16 00:24:41;;;;;;;4.40;2.40;;;;;;;;;;5085154;28;20530;-74
2022/08/16 00:27:10;;;;;;;2.70;2.50;;;;;;;;;;5084262;28;20837;-74
2022/08/16 00:29:37;;;;;;;3.10;2.80;;;;;;;;;;5070760;28;20950;-76
2022/08/16 00:32:04;;;;;;;2.93;2.73;;;;;;;;;;5061223;28;20436;-75
2022/08/16 00:34:32;;;;;;;2.50;2.30;;;;;;;;;;5057752;28;20430;-75
2022/08/16 00:37:11;;;;;;;2.40;2.20;;;;;;;;;;5062011;28;20441;-74
2022/08/16 00:39:43;;;;;;;2.70;2.50;;;;;;;;;;5084299;28;20513;-74
2022/08/16 00:42:10;;;;;;;2.50;2.30;;;;;;;;;;5060935;28;20487;-75
2022/08/16 00:44:38;;;;;;;2.40;2.20;;;;;;;;;;5081192;28;20437;-74
2022/08/16 00:47:08;;;;;;;2.67;2.47;;;;;;;;;;5071970;28;20433;-74
2022/08/16 00:49:36;;;;;;;2.77;2.57;;;;;;;;;;5062992;28;20468;-74
2022/08/16 00:52:05;;;;;;;2.37;2.27;;;;;;;;;;5062372;28;20441;-74
2022/08/16 00:54:51;;;;;;;3.00;2.80;;;;;;;;;;5065234;28;20464;-74
2022/08/16 00:57:18;;;;;;;2.70;2.50;;;;;;;;;;5078395;28;20933;-75
2022/08/16 00:59:49;;;;;;;2.87;2.57;;;;;;;;;;5081763;28;20522;-75
2022/08/16 01:02:25;;;;;;;2.67;2.47;;;;;;;;;;5085133;28;20419;-74
2022/08/16 01:04:58;;;;;;;2.50;2.30;;;;;;;;;;5070293;28;20507;-74
2022/08/16 01:07:39;;;;;;;2.87;2.67;;;;;;;;;;5070425;28;20444;-75
2022/08/16 01:10:22;;;;;;;4.80;2.70;;;;;;;;;;5073190;28;20502;-75
2022/08/16 01:13:02;;;;;;;3.00;2.57;;;;;;;;;;5070883;28;20808;-75
2022/08/16 01:15:31;;;;;;;2.73;2.53;;;;;;;;;;5073475;28;20515;-75
2022/08/16 01:17:59;;;;;;;3.60;2.70;;;;;;;;;;5057827;28;20511;-75
2022/08/16 01:20:27;;;;;;;4.63;2.83;;;;;;;;;;5088195;28;20443;-75
2022/08/16 01:23:11;;;;;;;3.03;2.73;;;;;;;;;;5076688;28;20436;-74
2022/08/16 01:25:44;;;;;;;2.60;2.37;;;;;;;;;;5068411;28;20445;-75
2022/08/16 01:28:26;;;;;;;2.60;2.40;;;;;;;;;;5076651;28;20455;-74
2022/08/16 01:30:57;;;;;;;3.60;2.40;;;;;;;;;;5057041;28;20465;-75
2022/08/16 01:33:24;;;;;;;3.47;3.20;;;;;;;;;;5066582;28;20472;-75
2022/08/16 01:36:08;;;;;;;3.63;2.63;;;;;;;;;;5076816;28;20443;-74
2022/08/16 01:38:41;;;;;;;3.30;3.00;;;;;;;;;;5061217;28;20492;-75
2022/08/16 01:41:20;;;;;;;4.40;2.47;;;;;;;;;;5054766;28;20428;-75
2022/08/16 01:43:50;;;;;;;3.30;2.50;;;;;;;;;;5081205;28;20460;-74
2022/08/16 01:46:29;;;;;;;2.73;2.53;;;;;;;;;;5076283;28;20924;-74
2022/08/16 01:49:18;;;;;;;3.17;2.73;;;;;;;;;;5058694;28;21016;-75
2022/08/16 01:51:47;;;;;;;3.10;2.90;;;;;;;;;;5080772;28;20811;-75
2022/08/16 01:54:20;;;;;;;4.10;2.40;;;;;;;;;;5052368;28;20438;-74
2022/08/16 01:56:57;;;;;;;3.47;3.27;;;;;;;;;;5073952;28;20926;-74
2022/08/16 01:59:25;;;;;;;2.67;2.47;;;;;;;;;;5059977;28;20543;-75
2022/08/16 02:01:53;;;;;;;3.03;2.70;;;;;;;;;;5091179;28;20927;-74
2022/08/16 02:04:28;;;;;;;2.67;2.47;;;;;;;;;;5048507;28;20457;-76
2022/08/16 02:07:17;;;;;;;2.80;2.50;;;;;;;;;;5076392;28;20435;-74
2022/08/16 02:09:44;;;;;;;3.23;2.93;;;;;;;;;;5062390;28;20515;-74
2022/08/16 02:12:28;;;;;;;4.50;2.70;;;;;;;;;;5089460;28;20534;-75
2022/08/16 02:15:15;;;;;;;3.30;2.83;;;;;;;;;;5062461;28;20438;-74
2022/08/16 02:17:42;;;;;;;3.17;2.90;;;;;;;;;;5080932;28;20452;-74
2022/08/16 02:20:14;;;;;;;3.67;3.20;;;;;;;;;;5064348;28;20435;-74
2022/08/16 02:22:41;;;;;;;2.37;2.27;;;;;;;;;;5066891;28;20432;-73
2022/08/16 02:25:13;;;;;;;3.70;2.50;;;;;;;;;;5058915;28;20443;-73
2022/08/16 02:27:41;;;;;;;3.30;3.00;;;;;;;;;;5078479;28;20438;-74
2022/08/16 02:30:20;;;;;;;2.73;2.53;;;;;;;;;;5075679;28;20460;-74
2022/08/16 02:33:07;;;;;;;3.93;2.90;;;;;;;;;;5073209;28;20428;-74
2022/08/16 02:35:35;;;;;;;2.87;2.57;;;;;;;;;;5079895;28;20440;-74
2022/08/16 02:38:21;;;;;;;3.00;2.80;;;;;;;;;;5062382;28;20557;-74
2022/08/16 02:40:49;;;;;;;3.27;3.07;;;;;;;;;;5059953;28;20851;-74
2022/08/16 02:43:17;;;;;;;3.00;2.70;;;;;;;;;;5066684;28;20433;-74
2022/08/16 02:45:43;;;;;;;2.60;2.50;;;;;;;;;;5066455;28;20470;-74
2022/08/16 02:48:10;;;;;;;2.80;2.60;;;;;;;;;;5086361;28;20808;-74
2022/08/16 02:50:57;;;;;;;3.50;3.20;;;;;;;;;;5072469;28;20460;-74
2022/08/16 02:53:43;;;;;;;2.83;2.63;;;;;;;;;;5071003;28;20876;-74
2022/08/16 02:56:12;;;;;;;7.17;3.47;;;;;;;;;;5072839;28;20497;-73
2022/08/16 02:58:41;;;;;;;3.50;3.20;;;;;;;;;;5072943;28;21032;-74
2022/08/16 03:01:11;;;;;;;3.83;3.33;;;;;;;;;;5086981;28;20420;-74
2022/08/16 03:04:01;;;;;;;3.37;3.07;;;;;;;;;;5076126;28;20826;-74
2022/08/16 03:06:48;;;;;;;3.20;3.00;;;;;;;;;;5076486;28;20433;-74
2022/08/16 03:09:33;;;;;;;3.67;3.47;;;;;;;;;;5083191;28;20901;-74
2022/08/16 03:12:01;;;;;;;3.47;3.10;;;;;;;;;;5079186;28;20438;-74
2022/08/16 03:14:28;;;;;;;6.47;3.67;;;;;;;;;;5083137;28;20928;-74
2022/08/16 03:16:57;;;;;;;3.77;3.37;;;;;;;;;;5086027;28;20455;-73
2022/08/16 03:19:33;;;;;;;3.30;3.10;;;;;;;;;;5061376;28;20461;-73
2022/08/16 03:22:20;;;;;;;3.50;3.20;;;;;;;;;;5060604;28;20433;-73
2022/08/16 03:25:04;;;;;;;4.00;3.60;;;;;;;;;;5057996;28;20851;-73
2022/08/16 03:27:34;;;;;;;3.97;3.57;;;;;;;;;;5072499;28;20437;-73
2022/08/16 03:30:07;;;;;;;3.80;3.50;;;;;;;;;;5060598;28;20840;-73
2022/08/16 03:32:48;;;;;;;6.43;3.50;;;;;;;;;;5059518;28;20429;-73
2022/08/16 03:35:21;;;;;;;3.83;3.53;;;;;;;;;;5079884;28;20463;-73
2022/08/16 03:37:48;;;;;;;4.10;3.03;;;;;;;;;;5076759;28;20834;-73
2022/08/16 03:40:33;;;;;;;3.80;3.40;;;;;;;;;;5059246;28;20428;-73
2022/08/16 03:43:04;;;;;;;3.80;3.50;;;;;;;;;;5074012;28;20440;-74
2022/08/16 03:45:50;;;;;;;4.60;2.97;;;;;;;;;;5073586;28;20448;-73
2022/08/16 03:48:22;;;;;;;4.30;3.90;;;;;;;;;;5084249;28;20543;-73
2022/08/16 03:51:17;;;;;;;4.43;3.60;;;;;;;;;;5093426;28;20471;-73
2022/08/16 03:53:56;;;;;;;3.80;3.00;;;;;;;;;;5092059;28;20440;-73
2022/08/16 03:56:29;;;;;;;4.50;3.83;;;;;;;;;;5080221;28;20455;-73
2022/08/16 03:58:57;;;;;;;4.03;3.63;;;;;;;;;;5094883;28;20433;-73
2022/08/16 04:01:28;;;;;;;5.30;3.70;;;;;;;;;;5106593;28;20443;-73
2022/08/16 04:03:56;;;;;;;5.63;3.77;;;;;;;;;;5088275;28;20440;-73
2022/08/16 04:06:22;;;;;;;3.73;3.37;;;;;;;;;;5060240;28;20440;-73
2022/08/16 04:08:49;;;;;;;6.60;3.40;;;;;;;;;;5080277;28;20479;-73
2022/08/16 04:11:16;;;;;;;3.43;3.13;;;;;;;;;;5097733;28;20459;-74
2022/08/16 04:13:46;;;;;;;3.60;3.30;;;;;;;;;;5079431;28;20414;-74
2022/08/16 04:16:31;;;;;;;4.07;3.77;;;;;;;;;;5053074;28;20810;-73
2022/08/16 04:19:15;;;;;;;3.57;3.27;;;;;;;;;;5055660;28;20503;-73
2022/08/16 04:21:42;;;;;;;3.60;3.30;;;;;;;;;;5054553;28;20426;-73
2022/08/16 04:24:16;;;;;;;3.70;3.40;;;;;;;;;;5057083;28;20888;-73
2022/08/16 04:26:43;;;;;;;4.10;3.70;;;;;;;;;;5055895;28;20807;-73
2022/08/16 04:29:12;;;;;;;4.10;3.80;;;;;;;;;;5089154;28;20448;-73
2022/08/16 04:31:51;;;;;;;4.03;3.50;;;;;;;;;;5066482;28;20492;-73
2022/08/16 04:34:29;;;;;;;3.70;3.40;;;;;;;;;;5065595;28;20459;-73
2022/08/16 04:36:58;;;;;;;3.83;3.50;;;;;;;;;;5091218;28;20939;-73
2022/08/16 04:39:29;;;;;;;3.50;3.30;;;;;;;;;;5075201;28;20459;-73
2022/08/16 04:42:17;;;;;;;4.17;3.40;;;;;;;;;;5059913;28;20425;-73
2022/08/16 04:44:53;;;;;;;4.03;3.73;;;;;;;;;;5070750;28;20432;-73
2022/08/16 04:47:27;;;;;;;5.77;3.80;;;;;;;;;;5070574;28;20429;-73
2022/08/16 04:50:06;;;;;;;7.90;3.77;;;;;;;;;;5061481;28;20511;-73
2022/08/16 04:52:33;;;;;;;4.63;4.23;;;;;;;;;;5066564;28;20470;-73
2022/08/16 04:55:12;;;;;;;5.90;3.80;;;;;;;;;;5071768;28;20452;-73
2022/08/16 04:57:42;;;;;;;3.83;3.33;;;;;;;;;;5070684;28;20811;-73
2022/08/16 05:00:12;;;;;;;3.87;3.57;;;;;;;;;;5070246;28;20483;-73
2022/08/16 05:03:05;;;;;;;6.47;4.10;;;;;;;;;;5070382;28;20848;-73
2022/08/16 05:05:40;;;;;;;4.70;4.30;;;;;;;;;;5053923;28;20424;-73
2022/08/16 05:08:23;;;;;;;3.73;3.43;;;;;;;;;;5070118;28;20460;-73
2022/08/16 05:11:23;;;;;;;6.10;3.77;;;;;;;;;;5063087;28;20465;-73
2022/08/16 05:14:00;;;;;;;5.00;4.20;;;;;;;;;;5057004;28;20430;-74
2022/08/16 05:16:33;;;;;;;4.87;4.47;;;;;;;;;;5073568;28;20436;-73
2022/08/16 05:19:05;;;;;;;3.87;3.57;;;;;;;;;;5082633;28;20506;-74
2022/08/16 05:21:51;;;;;;;3.93;3.60;;;;;;;;;;5070112;28;20447;-74
2022/08/16 05:24:19;;;;;;;4.10;3.80;;;;;;;;;;5053498;28;20438;-74
2022/08/16 05:26:50;;;;;;;3.80;3.50;;;;;;;;;;5074301;28;20439;-74
2022/08/16 05:29:19;;;;;;;5.43;4.90;;;;;;;;;;5079488;28;20452;-74
2022/08/16 05:32:04;;;;;;;4.60;4.20;;;;;;;;;;5050110;28;20524;-74
2022/08/16 05:34:50;;;;;;;4.93;4.10;;;;;;;;;;5076748;28;20434;-73
2022/08/16 05:37:17;;;;;;;5.17;4.67;;;;;;;;;;5081419;28;20420;-74
2022/08/16 05:39:50;;;;;;;4.37;3.97;;;;;;;;;;5083280;28;20887;-74
2022/08/16 05:42:20;;;;;;;4.70;4.20;;;;;;;;;;5072422;28;20862;-73
2022/08/16 05:45:01;;;;;;;5.33;4.80;;;;;;;;;;5053603;28;20427;-74
2022/08/16 05:47:33;;;;;;;6.07;4.50;;;;;;;;;;5065308;28;20443;-73
2022/08/16 05:50:09;;;;;;;4.73;4.20;;;;;;;;;;5082589;28;20440;-74
2022/08/16 05:52:45;;;;;;;4.77;4.30;;;;;;;;;;5056141;28;20829;-74
2022/08/16 05:55:12;;;;;;;4.70;4.30;;;;;;;;;;5053264;28;20464;-74
2022/08/16 05:57:39;;;;;;;4.07;3.67;;;;;;;;;;5053059;28;20865;-74
2022/08/16 06:00:10;;;;;;;4.30;4.00;;;;;;;;;;5063938;28;20476;-73
2022/08/16 06:02:40;;;;;;;5.20;4.03;;;;;;;;;;5072536;28;20967;-73
2022/08/16 06:05:32;;;;;;;4.10;3.77;;;;;;;;;;5071135;28;20918;-74
2022/08/16 06:08:06;;;;;;;6.00;4.23;;;;;;;;;;5080488;28;20471;-73
2022/08/16 06:10:41;;;;;;;5.23;4.70;;;;;;;;;;5072621;28;20567;-73
2022/08/16 06:13:28;;;;;;;4.90;4.27;;;;;;;;;;5069691;28;20416;-74
2022/08/16 06:15:58;;;;;;;4.10;3.70;;;;;;;;;;5049882;28;20425;-73
2022/08/16 06:18:25;;;;;;;4.53;3.97;;;;;;;;;;5086842;28;20550;-73
2022/08/16 06:20:53;;;;;;;5.43;3.87;;;;;;;;;;5057226;28;20434;-73
2022/08/16 06:23:25;;;;;;;5.27;4.50;;;;;;;;;;5086987;28;20444;-74
2022/08/16 06:25:57;;;;;;;7.40;4.40;;;;;;;;;;5079396;28;20494;-74
2022/08/16 06:28:28;;;;;;;5.67;4.20;;;;;;;;;;5106051;28;20534;-74
2022/08/16 06:31:03;;;;;;;5.40;4.20;;;;;;;;;;5081261;28;20571;-74
2022/08/16 06:33:31;;;;;;;4.60;4.20;;;;;;;;;;5092623;28;20984;-75
2022/08/16 06:36:08;;;;;;;4.67;4.23;;;;;;;;;;5079600;28;20428;-75
2022/08/16 06:38:36;;;;;;;7.00;4.40;;;;;;;;;;5085733;28;20452;-74
2022/08/16 06:41:12;;;;;;;11.73;5.83;;;;;;;;;;5061216;28;20472;-74
2022/08/16 06:43:41;;;;;;;5.60;4.13;;;;;;;;;;5093157;28;20523;-74
2022/08/16 06:46:21;;;;;;;7.73;4.10;;;;;;;;;;5079825;28;20431;-74
2022/08/16 06:48:57;;;;;;;4.83;3.97;;;;;;;;;;5080444;28;21040;-74
2022/08/16 06:51:24;;;;;;;3.80;3.50;;;;;;;;;;5086357;28;20894;-74
2022/08/16 06:54:13;;;;;;;5.30;4.90;;;;;;;;;;5086291;28;20441;-74
2022/08/16 06:56:41;;;;;;;8.43;4.60;;;;;;;;;;5072767;28;20429;-74
2022/08/16 06:59:11;;;;;;;4.33;3.70;;;;;;;;;;5086582;28;20467;-74
2022/08/16 07:01:46;;;;;;;16.37;4.03;;;;;;;;;;5062703;28;20848;-74
2022/08/16 07:04:22;;;;;;;4.47;4.03;;;;;;;;;;5066061;28;21023;-74
2022/08/16 07:07:04;;;;;;;5.53;4.30;;;;;;;;;;5080321;28;20435;-74
2022/08/16 07:09:35;;;;;;;5.00;4.10;;;;;;;;;;5072318;28;20956;-74
2022/08/16 07:12:02;;;;;;;3.87;3.57;;;;;;;;;;5056905;28;20556;-74
2022/08/16 07:14:33;;;;;;;3.73;3.00;;;;;;;;;;5073364;28;20939;-74
2022/08/16 07:17:04;;;;;;;3.80;3.50;;;;;;;;;;5078962;28;20486;-74
2022/08/16 07:19:40;;;;;;;5.80;3.60;;;;;;;;;;5079897;28;20452;-74
2022/08/16 07:22:35;;;;;;;6.27;4.57;;;;;;;;;;5088353;28;20489;-74
2022/08/16 07:25:26;;;;;;;3.93;3.50;;;;;;;;;;5078954;28;20527;-74
2022/08/16 07:27:52;;;;;;;4.03;3.63;;;;;;;;;;5091126;28;20539;-74
2022/08/16 07:30:23;;;;;;;4.23;3.87;;;;;;;;;;5042951;28;20953;-74
2022/08/16 07:33:16;;;;;;;6.53;4.27;;;;;;;;;;5076102;28;20435;-74
2022/08/16 07:36:05;;;;;;;5.10;4.57;;;;;;;;;;5064770;28;20424;-75
2022/08/16 07:38:34;;;;;;;4.90;4.20;;;;;;;;;;5068196;28;20452;-75
2022/08/16 07:41:02;;;;;;;3.93;3.63;;;;;;;;;;5069715;28;20443;-75
2022/08/16 07:43:37;;;;;;;5.10;4.60;;;;;;;;;;5062647;28;20444;-74
2022/08/16 07:46:08;;;;;;;3.93;3.57;;;;;;;;;;5068227;28;20444;-74
2022/08/16 07:48:55;;;;;;;4.33;4.03;;;;;;;;;;5075921;28;20461;-75
2022/08/16 07:51:33;;;;;;;5.23;4.67;;;;;;;;;;5049940;28;20466;-74
2022/08/16 07:54:04;;;;;;;4.33;3.93;;;;;;;;;;5074727;28;20434;-74
2022/08/16 07:56:40;;;;;;;8.13;4.80;;;;;;;;;;5062636;28;20998;-74
2022/08/16 07:59:07;;;;;;;5.17;4.77;;;;;;;;;;5070530;28;20460;-74
2022/08/16 08:01:34;;;;;;;4.10;3.70;;;;;;;;;;5062032;28;20462;-74
2022/08/16 08:04:02;;;;;;;6.13;4.37;;;;;;;;;;5073677;28;20444;-74
2022/08/16 08:06:34;;;;;;;5.03;4.70;;;;;;;;;;5091699;28;20443;-74
2022/08/16 08:09:12;;;;;;;4.10;3.80;;;;;;;;;;5069933;28;20517;-74
2022/08/16 08:11:39;;;;;;;4.17;3.83;;;;;;;;;;5063362;28;20460;-75
2022/08/16 08:14:25;;;;;;;5.07;3.50;;;;;;;;;;5060918;28;20413;-74
2022/08/16 08:16:58;;;;;;;4.60;4.20;;;;;;;;;;5071008;28;20436;-74
2022/08/16 08:19:28;;;;;;;5.90;3.80;;;;;;;;;;5055038;28;20476;-74
2022/08/16 08:21:55;;;;;;;4.43;4.00;;;;;;;;;;5072217;28;20840;-74
2022/08/16 08:24:51;;;;;;;12.13;4.40;;;;;;;;;;5068287;28;20515;-74
2022/08/16 08:27:24;;;;;;;3.63;3.43;;;;;;;;;;5055290;28;20436;-75
2022/08/16 08:29:52;;;;;;;4.67;4.27;;;;;;;;;;5070715;28;20835;-74
2022/08/16 08:32:41;;;;;;;4.60;4.20;;;;;;;;;;5057187;28;20476;-74
2022/08/16 08:35:25;;;;;;;6.20;4.13;;;;;;;;;;5059562;28;20525;-74
2022/08/16 08:37:54;;;;;;;5.10;4.57;;;;;;;;;;5054024;28;20484;-74
2022/08/16 08:40:25;;;;;;;5.83;4.40;;;;;;;;;;5071495;28;20836;-75
2022/08/16 08:42:58;;;;;;;5.03;4.50;;;;;;;;;;5070983;28;20436;-74
2022/08/16 08:45:28;;;;;;;4.40;3.90;;;;;;;;;;5082436;28;20756;-74
2022/08/16 08:48:16;;;;;;;6.57;4.30;;;;;;;;;;5084403;28;20464;-74
2022/08/16 08:51:02;;;;;;;4.70;4.30;;;;;;;;;;5060153;28;20569;-74
2022/08/16 08:53:29;;;;;;;4.10;3.80;;;;;;;;;;5063571;28;20441;-74
2022/08/16 08:55:57;;;;;;;4.07;3.40;;;;;;;;;;5053313;28;20430;-74
2022/08/16 08:58:25;;;;;;;5.33;4.10;;;;;;;;;;5061193;28;20452;-74
2022/08/16 09:01:14;;;;;;;4.70;4.23;;;;;;;;;;5084661;28;20431;-74
2022/08/16 09:03:58;;;;;;;4.53;4.13;;;;;;;;;;5072845;28;20432;-74
2022/08/16 09:06:25;;;;;;;8.13;3.90;;;;;;;;;;5090472;28;20419;-74
2022/08/16 09:08:52;;;;;;;4.87;4.27;;;;;;;;;;5074116;28;20480;-74
2022/08/16 09:11:18;;;;;;;5.03;4.53;;;;;;;;;;5069949;28;20453;-74
2022/08/16 09:13:47;;;;;;;5.63;3.80;;;;;;;;;;5066657;28;20421;-73
2022/08/16 09:16:15;;;;;;;4.77;3.90;;;;;;;;;;5061272;28;20932;-73
2022/08/16 09:19:02;;;;;;;5.67;3.87;;;;;;;;;;5077227;28;20471;-73
2022/08/16 09:21:29;;;;;;;5.73;4.77;;;;;;;;;;5063294;28;20433;-72
2022/08/16 09:23:57;;;;;;;5.00;4.43;;;;;;;;;;5090494;28;20449;-73
2022/08/16 09:26:24;;;;;;;5.47;4.23;;;;;;;;;;5090232;28;20451;-74
2022/08/16 09:29:10;;;;;;;5.77;3.97;;;;;;;;;;5090404;28;20444;-74
2022/08/16 09:31:49;;;;;;;4.97;4.07;;;;;;;;;;5084415;28;20463;-74
2022/08/16 09:34:19;;;;;;;6.10;4.17;;;;;;;;;;5053773;28;20436;-74
2022/08/16 09:36:46;;;;;;;3.87;3.57;;;;;;;;;;5069977;28;20941;-74
2022/08/16 09:39:13;;;;;;;4.70;4.30;;;;;;;;;;5070101;28;21033;-74
2022/08/16 09:41:42;;;;;;;5.70;4.40;;;;;;;;;;5071193;28;20431;-74
2022/08/16 09:44:23;;;;;;;4.97;3.93;;;;;;;;;;5086681;28;20439;-74
2022/08/16 09:47:09;;;;;;;4.67;3.50;;;;;;;;;;5069869;28;20531;-74
2022/08/16 09:49:36;;;;;;;4.80;4.40;;;;;;;;;;5069614;28;20543;-74
2022/08/16 09:52:07;;;;;;;6.33;4.93;;;;;;;;;;5069103;28;20506;-74
2022/08/16 09:54:35;;;;;;;3.90;3.60;;;;;;;;;;5080625;28;20791;-74
2022/08/16 09:57:02;;;;;;;5.17;4.47;;;;;;;;;;5077192;28;20427;-75
2022/08/16 09:59:30;;;;;;;6.43;4.27;;;;;;;;;;5070342;28;20556;-74
2022/08/16 10:02:04;;;;;;;4.20;3.60;;;;;;;;;;5083190;28;20431;-74
2022/08/16 10:04:51;;;;;;;4.27;3.87;;;;;;;;;;5076648;28;20439;-74
2022/08/16 10:07:20;;;;;;;4.40;4.00;;;;;;;;;;5072714;28;21120;-74
2022/08/16 10:09:47;;;;;;;4.47;4.07;;;;;;;;;;5064084;28;20461;-73
2022/08/16 10:15:09;;;;;;;4.90;4.50;;;;;;;;;;5083974;28;20470;-74
2022/08/16 10:17:42;;;;;;;4.83;4.33;;;;;;;;;;5095273;28;20917;-74
2022/08/16 10:20:10;;;;;;;4.30;4.00;;;;;;;;;;5069985;28;20471;-74
2022/08/16 10:22:43;;;;;;;6.70;4.23;;;;;;;;;;5085232;28;20435;-74
2022/08/16 10:25:10;;;;;;;5.77;4.40;;;;;;;;;;5072776;28;20425;-74
2022/08/16 10:28:00;;;;;;;4.77;4.33;;;;;;;;;;5072692;28;20475;-74
2022/08/16 10:30:46;;;;;;;4.63;4.30;;;;;;;;;;5073984;28;20467;-74
2022/08/16 10:33:25;;;;;;;4.50;3.90;;;;;;;;;;5071976;28;20484;-74
2022/08/16 10:35:55;;;;;;;5.47;3.77;;;;;;;;;;5070791;28;20495;-74
2022/08/16 10:38:29;;;;;;;5.10;4.03;;;;;;;;;;5064303;28;20446;-74
2022/08/16 10:40:58;;;;;;;4.17;3.50;;;;;;;;;;5080651;28;20431;-74
2022/08/16 10:43:25;;;;;;;4.40;4.00;;;;;;;;;;5082132;28;20531;-74
2022/08/16 10:45:56;;;;;;;5.23;3.47;;;;;;;;;;5069692;28;20506;-74
2022/08/16 10:48:27;;;;;;;4.97;3.90;;;;;;;;;;5062654;28;20545;-74
2022/08/16 10:50:58;;;;;;;4.23;3.93;;;;;;;;;;5056953;28;20441;-74
2022/08/16 10:53:26;;;;;;;6.07;5.00;;;;;;;;;;5070570;28;20496;-74
2022/08/16 10:56:00;;;;;;;4.47;4.13;;;;;;;;;;5071218;28;20436;-74
2022/08/16 10:58:27;;;;;;;7.90;4.27;;;;;;;;;;5069569;28;20464;-75
2022/08/16 11:01:01;;;;;;;6.40;4.40;;;;;;;;;;5072037;28;20959;-75
2022/08/16 11:03:47;;;;;;;3.87;3.57;;;;;;;;;;5078717;28;20501;-75
2022/08/16 11:06:22;;;;;;;6.47;4.47;;;;;;;;;;5093202;28;20990;-75
2022/08/16 11:08:54;;;;;;;5.23;4.20;;;;;;;;;;5074799;28;20475;-75
2022/08/16 11:11:41;;;;;;;4.10;3.80;;;;;;;;;;5074874;28;20490;-74
2022/08/16 11:14:28;;;;;;;4.83;4.27;;;;;;;;;;5062667;28;20580;-74
2022/08/16 11:16:54;;;;;;;5.20;3.23;;;;;;;;;;5059615;28;20427;-74
2022/08/16 11:19:36;;;;;;;4.60;3.90;;;;;;;;;;5092879;28;20447;-75
2022/08/16 11:22:23;;;;;;;3.90;3.60;;;;;;;;;;5063788;28;20463;-75
2022/08/16 11:25:10;;;;;;;4.20;3.80;;;;;;;;;;5078251;28;20512;-75
2022/08/16 11:27:38;;;;;;;4.20;3.80;;;;;;;;;;5096557;28;20419;-75
2022/08/16 11:30:05;;;;;;;3.93;3.63;;;;;;;;;;5076850;28;20806;-75
2022/08/16 11:32:35;;;;;;;3.73;3.50;;;;;;;;;;5075473;28;20988;-75
2022/08/16 11:35:07;;;;;;;4.40;4.00;;;;;;;;;;5062298;28;20448;-75
2022/08/16 11:37:42;;;;;;;4.80;4.20;;;;;;;;;;5095157;28;20429;-74
2022/08/16 11:40:30;;;;;;;4.13;3.83;;;;;;;;;;5096515;28;20423;-74
2022/08/16 11:42:58;;;;;;;4.47;4.17;;;;;;;;;;5096345;28;20503;-74
2022/08/16 11:45:25;;;;;;;4.80;4.30;;;;;;;;;;5068053;28;20432;-73
2022/08/16 11:47:52;;;;;;;5.03;4.00;;;;;;;;;;5075739;28;20448;-74
2022/08/16 11:50:18;;;;;;;5.67;3.73;;;;;;;;;;5062076;28;20445;-75
2022/08/16 11:52:45;;;;;;;4.20;3.80;;;;;;;;;;5089967;28;20449;-74
2022/08/16 11:55:12;;;;;;;5.07;3.97;;;;;;;;;;5075743;28;20429;-74
2022/08/16 11:57:39;;;;;;;4.93;4.50;;;;;;;;;;5076993;28;20420;-74
2022/08/16 12:00:10;;;;;;;4.00;3.60;;;;;;;;;;5072919;28;20853;-74
2022/08/16 12:02:57;;;;;;;4.27;3.97;;;;;;;;;;5061138;28;20420;-75
2022/08/16 12:05:25;;;;;;;4.63;3.77;;;;;;;;;;5088275;28;20534;-75
2022/08/16 12:07:54;;;;;;;3.93;3.63;;;;;;;;;;5065838;28;20514;-76
2022/08/16 12:10:21;;;;;;;5.43;3.30;;;;;;;;;;5072790;28;20474;-75
2022/08/16 12:12:53;;;;;;;3.80;3.53;;;;;;;;;;5062522;28;20448;-75
2022/08/16 12:15:25;;;;;;;5.23;3.57;;;;;;;;;;5070740;28;20516;-75
2022/08/16 12:17:54;;;;;;;3.80;3.50;;;;;;;;;;5076947;28;20465;-74
2022/08/16 12:20:24;;;;;;;3.50;3.30;;;;;;;;;;5069371;28;20523;-75
2022/08/16 12:22:55;;;;;;;3.70;3.40;;;;;;;;;;5072595;28;20452;-74
2022/08/16 12:25:25;;;;;;;3.50;3.27;;;;;;;;;;5087942;28;20458;-75
2022/08/16 12:27:53;;;;;;;3.93;3.63;;;;;;;;;;5071231;28;20455;-75
2022/08/16 12:30:25;;;;;;;4.23;3.50;;;;;;;;;;5087761;28;20929;-74
2022/08/16 12:33:01;;;;;;;4.10;3.70;;;;;;;;;;5073325;28;20459;-74
2022/08/16 12:35:29;;;;;;;3.77;3.47;;;;;;;;;;5072765;28;20440;-74
2022/08/16 12:37:57;;;;;;;4.10;3.80;;;;;;;;;;5071801;28;20984;-74
2022/08/16 12:40:25;;;;;;;4.70;4.23;;;;;;;;;;5071101;28;20435;-75
2022/08/16 12:42:55;;;;;;;4.83;3.97;;;;;;;;;;5072178;28;20490;-75
2022/08/16 12:45:25;;;;;;;4.47;3.97;;;;;;;;;;5060637;28;20449;-75
2022/08/16 12:50:57;;;;;;;4.17;3.77;;;;;;;;;;5092551;28;20860;-75
2022/08/16 12:53:26;;;;;;;4.07;3.77;;;;;;;;;;5074600;28;20463;-74
2022/08/16 12:55:58;;;;;;;5.20;3.63;;;;;;;;;;5091181;28;20436;-75
2022/08/16 12:58:26;;;;;;;3.70;3.30;;;;;;;;;;5091030;28;20459;-74
2022/08/16 13:01:13;;;;;;;4.23;3.87;;;;;;;;;;5091008;28;20443;-74
2022/08/16 13:03:40;;;;;;;4.63;3.60;;;;;;;;;;5091588;28;20434;-74
2022/08/16 13:06:07;;;;;;;4.43;4.10;;;;;;;;;;5074031;28;20919;-75
2022/08/16 13:08:33;;;;;;;4.20;3.23;;;;;;;;;;5090556;28;20459;-75
2022/08/16 13:11:03;;;;;;;4.50;3.20;;;;;;;;;;5067670;28;20436;-75
2022/08/16 13:13:34;;;;;;;4.03;3.17;;;;;;;;;;5067260;28;20543;-74
2022/08/16 13:16:01;;;;;;;3.80;3.50;;;;;;;;;;5071804;28;20435;-75
2022/08/16 13:18:46;;;;;;;3.63;3.27;;;;;;;;;;5070274;28;20468;-75
2022/08/16 13:21:19;;;;;;;3.93;3.60;;;;;;;;;;5070168;28;20448;-75
2022/08/16 13:23:49;;;;;;;3.87;3.43;;;;;;;;;;5070220;28;20831;-74
2022/08/16 13:26:18;;;;;;;4.13;3.20;;;;;;;;;;5086057;28;20916;-74
2022/08/16 13:28:45;;;;;;;5.00;3.77;;;;;;;;;;5070109;28;20452;-74
2022/08/16 13:31:14;;;;;;;3.43;3.13;;;;;;;;;;5070056;28;20501;-74
2022/08/16 13:33:42;;;;;;;7.10;3.03;;;;;;;;;;5070110;28;20489;-74
2022/08/16 13:36:11;;;;;;;3.30;3.00;;;;;;;;;;5069869;28;20524;-74
2022/08/16 13:38:58;;;;;;;5.87;2.97;;;;;;;;;;5070174;28;20514;-74
2022/08/16 13:41:25;;;;;;;3.20;3.00;;;;;;;;;;5069899;28;20433;-74
2022/08/16 13:43:59;;;;;;;5.10;3.80;;;;;;;;;;5086831;28;20429;-74
2022/08/16 13:46:31;;;;;;;3.60;3.27;;;;;;;;;;5069833;28;20482;-74
2022/08/16 13:48:58;;;;;;;4.47;3.47;;;;;;;;;;5069882;28;20862;-74
2022/08/16 13:51:26;;;;;;;3.30;3.10;;;;;;;;;;5070004;28;20436;-74
2022/08/16 13:53:56;;;;;;;3.50;3.20;;;;;;;;;;5071293;28;20815;-74
2022/08/16 13:56:26;;;;;;;3.80;3.50;;;;;;;;;;5086446;28;20420;-74
2022/08/16 13:59:04;;;;;;;3.50;3.20;;;;;;;;;;5085047;28;20882;-74
2022/08/16 14:01:31;;;;;;;4.30;3.43;;;;;;;;;;5069707;28;20428;-74
2022/08/16 14:04:02;;;;;;;4.10;3.07;;;;;;;;;;5071039;28;20951;-74
2022/08/16 14:06:30;;;;;;;4.73;3.57;;;;;;;;;;5054636;28;20463;-74
2022/08/16 14:08:58;;;;;;;3.33;3.13;;;;;;;;;;5071431;28;20476;-74
2022/08/16 14:11:33;;;;;;;4.40;4.10;;;;;;;;;;5069728;28;20444;-75
2022/08/16 14:14:00;;;;;;;8.37;3.60;;;;;;;;;;5094692;28;20470;-74
2022/08/16 14:16:30;;;;;;;5.10;3.43;;;;;;;;;;5088060;28;20435;-74
2022/08/16 14:19:00;;;;;;;3.93;3.30;;;;;;;;;;5090645;28;20483;-74
2022/08/16 14:21:28;;;;;;;3.63;3.33;;;;;;;;;;5089253;28;20420;-74
2022/08/16 14:24:02;;;;;;;3.00;2.80;;;;;;;;;;5099444;28;20421;-74
2022/08/16 14:26:33;;;;;;;3.13;2.93;;;;;;;;;;5100745;28;20448;-74
2022/08/16 14:29:00;;;;;;;2.63;2.43;;;;;;;;;;5084416;28;20470;-74
2022/08/16 14:31:29;;;;;;;3.50;3.20;;;;;;;;;;5075108;28;20464;-73
2022/08/16 14:33:57;;;;;;;3.50;3.20;;;;;;;;;;5086056;28;20978;-74
2022/08/16 14:36:26;;;;;;;3.10;2.90;;;;;;;;;;5089855;28;20424;-74
2022/08/16 14:38:56;;;;;;;5.80;3.30;;;;;;;;;;5092987;28;20448;-75
2022/08/16 14:41:23;;;;;;;3.27;3.03;;;;;;;;;;5076647;28;20436;-75
2022/08/16 14:43:50;;;;;;;3.30;3.10;;;;;;;;;;5094042;28;20439;-75
2022/08/16 14:46:17;;;;;;;3.37;3.07;;;;;;;;;;5095185;28;20469;-75
2022/08/16 14:48:44;;;;;;;3.67;3.27;;;;;;;;;;5093270;28;20508;-75
2022/08/16 14:51:10;;;;;;;3.27;2.97;;;;;;;;;;5094608;28;20915;-75
2022/08/16 14:53:37;;;;;;;6.53;2.40;;;;;;;;;;5092997;28;20967;-74
2022/08/16 14:56:10;;;;;;;4.30;2.67;;;;;;;;;;5077223;28;20450;-74
2022/08/16 14:58:57;;;;;;;2.43;2.30;;;;;;;;;;5080934;28;20485;-74
2022/08/16 15:01:23;;;;;;;4.60;3.20;;;;;;;;;;5093032;28;20510;-74
2022/08/16 15:04:11;;;;;;;3.10;2.90;;;;;;;;;;5078873;28;20514;-74
2022/08/16 15:06:57;;;;;;;3.10;2.80;;;;;;;;;;5078751;28;20458;-74
2022/08/16 15:09:25;;;;;;;3.80;3.50;;;;;;;;;;5092817;28;20439;-74
2022/08/16 15:11:52;;;;;;;4.77;3.30;;;;;;;;;;5058906;28;20471;-75
2022/08/16 15:14:19;;;;;;;2.90;2.70;;;;;;;;;;5084257;28;20959;-74
2022/08/16 15:16:45;;;;;;;3.10;2.83;;;;;;;;;;5072643;28;20432;-74
2022/08/16 15:19:14;;;;;;;3.43;3.23;;;;;;;;;;5081439;28;20463;-75
2022/08/16 15:21:42;;;;;;;3.80;3.40;;;;;;;;;;5059788;28;20535;-74
2022/08/16 15:24:09;;;;;;;4.30;3.53;;;;;;;;;;5072307;28;20445;-74
2022/08/16 15:26:43;;;;;;;3.23;2.93;;;;;;;;;;5056734;28;20849;-74